sensor_id;sensor_type;location;lat;lon;timestamp;pressure;altitude;pressure_sealevel;temperature;humidity
12358;BME280;6243;51.244;6.774;2023-02-10T00:01:21;149560.41;;;8.33;98.58
12358;BME280;6243;51.244;6.774;2023-02-10T00:03:47;149568.03;;;8.36;98.48
12358;BME280;6243;51.244;6.774;2023-02-10T00:06:14;149611.19;;;8.53;95.47
12358;BME280;6243;51.244;6.774;2023-02-10T00:08:42;149601.00;;;8.49;95.80
12358;BME280;6243;51.244;6.774;2023-02-10T00:11:11;149594.66;;;8.46;96.66
12358;BME280;6243;51.244;6.774;2023-02-10T00:13:37;149562.97;;;8.34;98.13
12358;BME280;6243;51.244;6.774;2023-02-10T00:16:06;149582.03;;;8.41;97.73
12358;BME280;6243;51.244;6.774;2023-02-10T00:18:32;149566.75;;;8.35;98.35
12358;BME280;6243;51.244;6.774;2023-02-10T00:21:05;149569.31;;;8.36;98.47
12358;BME280;6243;51.244;6.774;2023-02-10T00:23:30;149535.03;;;8.23;100.00
12358;BME280;6243;51.244;6.774;2023-02-10T00:25:57;149560.41;;;8.33;99.81
12358;BME280;6243;51.244;6.774;2023-02-10T00:28:23;149542.69;;;8.26;100.00
12358;BME280;6243;51.244;6.774;2023-02-10T00:30:48;149458.91;;;7.93;100.00
12358;BME280;6243;51.244;6.774;2023-02-10T00:33:14;149453.84;;;7.91;100.00
12358;BME280;6243;51.244;6.774;2023-02-10T00:35:39;149479.22;;;8.01;100.00
12358;BME280;6243;51.244;6.774;2023-02-10T00:38:05;149509.63;;;8.13;100.00
12358;BME280;6243;51.244;6.774;2023-02-10T00:40:30;149410.75;;;7.73;100.00
12358;BME280;6243;51.244;6.774;2023-02-10T00:42:57;149507.13;;;8.12;100.00
12358;BME280;6243;51.244;6.774;2023-02-10T00:45:23;149549.00;;;8.28;100.00
12358;BME280;6243;51.244;6.774;2023-02-10T00:47:48;149498.22;;;8.08;100.00
12358;BME280;6243;51.244;6.774;2023-02-10T00:50:14;149469.06;;;7.97;100.00
12358;BME280;6243;51.244;6.774;2023-02-10T00:52:39;149462.72;;;7.94;100.00
12358;BME280;6243;51.244;6.774;2023-02-10T00:55:05;149494.44;;;8.07;100.00
12358;BME280;6243;51.244;6.774;2023-02-10T00:57:31;149503.28;;;8.10;100.00
12358;BME280;6243;51.244;6.774;2023-02-10T00:59:58;149541.38;;;8.25;100.00
12358;BME280;6243;51.244;6.774;2023-02-10T01:02:23;149462.72;;;7.94;100.00
12358;BME280;6243;51.244;6.774;2023-02-10T01:04:49;149458.91;;;7.93;100.00
12358;BME280;6243;51.244;6.774;2023-02-10T01:07:14;149513.47;;;8.14;100.00
12358;BME280;6243;51.244;6.774;2023-02-10T01:09:40;149546.50;;;8.27;100.00
12358;BME280;6243;51.244;6.774;2023-02-10T01:12:05;149515.97;;;8.15;100.00
12358;BME280;6243;51.244;6.774;2023-02-10T01:14:31;149522.31;;;8.18;100.00
12358;BME280;6243;51.244;6.774;2023-02-10T01:16:59;149499.50;;;8.09;100.00
12358;BME280;6243;51.244;6.774;2023-02-10T01:19:24;149555.34;;;8.31;100.00
12358;BME280;6243;51.244;6.774;2023-02-10T01:21:50;149560.41;;;8.33;100.00
12358;BME280;6243;51.244;6.774;2023-02-10T01:24:15;149519.81;;;8.17;100.00
12358;BME280;6243;51.244;6.774;2023-02-10T01:26:41;149542.69;;;8.26;100.00
12358;BME280;6243;51.244;6.774;2023-02-10T01:29:06;149541.38;;;8.25;100.00
12358;BME280;6243;51.244;6.774;2023-02-10T01:31:32;149528.69;;;8.20;100.00
12358;BME280;6243;51.244;6.774;2023-02-10T01:33:59;149532.47;;;8.22;100.00
12358;BME280;6243;51.244;6.774;2023-02-10T01:36:25;149551.56;;;8.29;100.00
12358;BME280;6243;51.244;6.774;2023-02-10T01:38:51;149547.75;;;8.28;100.00
12358;BME280;6243;51.244;6.774;2023-02-10T01:41:18;149474.13;;;7.99;100.00
12358;BME280;6243;51.244;6.774;2023-02-10T01:43:55;149523.63;;;8.18;100.00
12358;BME280;6243;51.244;6.774;2023-02-10T01:46:21;149504.56;;;8.11;100.00
12358;BME280;6243;51.244;6.774;2023-02-10T01:48:47;149532.47;;;8.22;100.00
12358;BME280;6243;51.244;6.774;2023-02-10T01:51:15;149551.56;;;8.29;100.00
12358;BME280;6243;51.244;6.774;2023-02-10T01:53:42;149513.47;;;8.14;100.00
12358;BME280;6243;51.244;6.774;2023-02-10T01:56:09;149522.31;;;8.18;100.00
12358;BME280;6243;51.244;6.774;2023-02-10T01:58:35;149549.00;;;8.28;100.00
12358;BME280;6243;51.244;6.774;2023-02-10T02:01:01;149532.47;;;8.22;100.00
12358;BME280;6243;51.244;6.774;2023-02-10T02:03:27;149532.47;;;8.22;100.00
12358;BME280;6243;51.244;6.774;2023-02-10T02:05:52;149559.19;;;8.32;100.00
12358;BME280;6243;51.244;6.774;2023-02-10T02:08:21;149561.69;;;8.33;100.00
12358;BME280;6243;51.244;6.774;2023-02-10T02:11:09;149546.50;;;8.27;100.00
12358;BME280;6243;51.244;6.774;2023-02-10T02:13:59;149557.91;;;8.32;100.00
12358;BME280;6243;51.244;6.774;2023-02-10T02:16:41;149602.28;;;8.49;100.00
12358;BME280;6243;51.244;6.774;2023-02-10T02:25:26;149576.94;;;8.39;100.00
12358;BME280;6243;51.244;6.774;2023-02-10T02:28:18;149552.84;;;8.30;100.00
12358;BME280;6243;51.244;6.774;2023-02-10T02:31:07;149490.66;;;8.05;100.00
12358;BME280;6243;51.244;6.774;2023-02-10T02:33:40;149393.00;;;7.66;100.00
12358;BME280;6243;51.244;6.774;2023-02-10T02:36:11;149387.91;;;7.64;100.00
12358;BME280;6243;51.244;6.774;2023-02-10T02:38:38;149420.91;;;7.77;100.00
12358;BME280;6243;51.244;6.774;2023-02-10T02:41:03;149428.47;;;7.80;100.00
12358;BME280;6243;51.244;6.774;2023-02-10T02:43:29;149451.28;;;7.89;100.00
12358;BME280;6243;51.244;6.774;2023-02-10T02:45:59;149439.88;;;7.85;100.00
12358;BME280;6243;51.244;6.774;2023-02-10T02:48:43;149471.59;;;7.98;100.00
12358;BME280;6243;51.244;6.774;2023-02-10T02:51:19;149524.88;;;8.19;100.00
12358;BME280;6243;51.244;6.774;2023-02-10T02:53:56;149420.91;;;7.77;100.00
12358;BME280;6243;51.244;6.774;2023-02-10T02:56:30;149521.06;;;8.17;100.00
12358;BME280;6243;51.244;6.774;2023-02-10T02:59:02;149489.38;;;8.05;100.00
12358;BME280;6243;51.244;6.774;2023-02-10T03:01:31;149488.09;;;8.04;100.00
12358;BME280;6243;51.244;6.774;2023-02-10T03:04:01;149477.97;;;8.00;100.00
12358;BME280;6243;51.244;6.774;2023-02-10T03:06:26;149406.94;;;7.72;100.00
12358;BME280;6243;51.244;6.774;2023-02-10T03:08:52;149450.06;;;7.89;100.00
12358;BME280;6243;51.244;6.774;2023-02-10T03:11:18;149431.03;;;7.81;100.00
12358;BME280;6243;51.244;6.774;2023-02-10T03:13:44;149297.91;;;7.29;100.00
12358;BME280;6243;51.244;6.774;2023-02-10T03:16:09;149314.38;;;7.35;100.00
12358;BME280;6243;51.244;6.774;2023-02-10T03:18:35;149152.22;;;6.71;100.00
12358;BME280;6243;51.244;6.774;2023-02-10T03:21:02;149152.22;;;6.71;100.00
12358;BME280;6243;51.244;6.774;2023-02-10T03:23:28;149150.94;;;6.70;100.00
12358;BME280;6243;51.244;6.774;2023-02-10T03:25:53;149102.78;;;6.51;100.00
12358;BME280;6243;51.244;6.774;2023-02-10T03:28:19;149154.72;;;6.72;100.00
12358;BME280;6243;51.244;6.774;2023-02-10T03:30:44;149074.94;;;6.40;100.00
12358;BME280;6243;51.244;6.774;2023-02-10T03:33:10;149076.22;;;6.40;100.00
12358;BME280;6243;51.244;6.774;2023-02-10T03:35:37;149101.50;;;6.51;100.00
12358;BME280;6243;51.244;6.774;2023-02-10T03:38:04;149042.03;;;6.27;100.00
12358;BME280;6243;51.244;6.774;2023-02-10T03:40:30;149020.47;;;6.18;100.00
12358;BME280;6243;51.244;6.774;2023-02-10T03:42:55;149083.78;;;6.43;100.00
12358;BME280;6243;51.244;6.774;2023-02-10T03:45:21;149002.78;;;6.11;100.00
12358;BME280;6243;51.244;6.774;2023-02-10T03:47:46;149073.66;;;6.39;100.00
12358;BME280;6243;51.244;6.774;2023-02-10T03:50:12;149161.06;;;6.74;100.00
12358;BME280;6243;51.244;6.774;2023-02-10T03:52:37;149194.00;;;6.87;100.00
12358;BME280;6243;51.244;6.774;2023-02-10T03:55:07;149258.63;;;7.13;100.00
12358;BME280;6243;51.244;6.774;2023-02-10T03:57:32;149300.47;;;7.30;100.00
12358;BME280;6243;51.244;6.774;2023-02-10T03:59:58;149332.13;;;7.42;100.00
12358;BME280;6243;51.244;6.774;2023-02-10T04:02:23;149343.53;;;7.47;100.00
12358;BME280;6243;51.244;6.774;2023-02-10T04:04:49;149309.31;;;7.33;100.00
12358;BME280;6243;51.244;6.774;2023-02-10T04:07:15;149296.63;;;7.28;100.00
12358;BME280;6243;51.244;6.774;2023-02-10T04:09:40;149276.38;;;7.20;100.00
12358;BME280;6243;51.244;6.774;2023-02-10T04:12:07;149247.22;;;7.08;100.00
12358;BME280;6243;51.244;6.774;2023-02-10T04:14:33;149225.69;;;7.00;100.00
12358;BME280;6243;51.244;6.774;2023-02-10T04:16:58;149224.41;;;6.99;100.00
12358;BME280;6243;51.244;6.774;2023-02-10T04:19:24;149248.50;;;7.09;100.00
12358;BME280;6243;51.244;6.774;2023-02-10T04:21:49;149180.09;;;6.82;100.00
12358;BME280;6243;51.244;6.774;2023-02-10T04:24:15;149129.38;;;6.62;100.00
12358;BME280;6243;51.244;6.774;2023-02-10T04:26:40;149173.75;;;6.79;100.00
12358;BME280;6243;51.244;6.774;2023-02-10T04:29:07;149171.19;;;6.78;100.00
12358;BME280;6243;51.244;6.774;2023-02-10T04:31:33;149172.47;;;6.79;100.00
12358;BME280;6243;51.244;6.774;2023-02-10T04:33:58;149150.94;;;6.70;100.00
12358;BME280;6243;51.244;6.774;2023-02-10T04:36:24;149177.53;;;6.81;100.00
12358;BME280;6243;51.244;6.774;2023-02-10T04:38:49;149111.69;;;6.55;100.00
12358;BME280;6243;51.244;6.774;2023-02-10T04:41:14;149128.16;;;6.61;100.00
12358;BME280;6243;51.244;6.774;2023-02-10T04:43:40;149133.22;;;6.63;100.00
12358;BME280;6243;51.244;6.774;2023-02-10T04:46:07;149168.69;;;6.77;100.00
12358;BME280;6243;51.244;6.774;2023-02-10T04:48:33;149086.34;;;6.44;100.00
12358;BME280;6243;51.244;6.774;2023-02-10T04:50:58;149142.06;;;6.67;100.00
12358;BME280;6243;51.244;6.774;2023-02-10T04:53:23;149082.56;;;6.43;100.00
12358;BME280;6243;51.244;6.774;2023-02-10T04:55:49;149128.16;;;6.61;100.00
12358;BME280;6243;51.244;6.774;2023-02-10T04:58:14;148987.56;;;6.05;100.00
12358;BME280;6243;51.244;6.774;2023-02-10T05:00:40;149033.13;;;6.23;100.00
12358;BME280;6243;51.244;6.774;2023-02-10T05:03:07;148947.03;;;5.89;100.00
12358;BME280;6243;51.244;6.774;2023-02-10T05:05:32;148883.72;;;5.64;100.00
12358;BME280;6243;51.244;6.774;2023-02-10T05:07:58;148933.09;;;5.84;100.00
12358;BME280;6243;51.244;6.774;2023-02-10T05:10:23;148978.72;;;6.02;100.00
12358;BME280;6243;51.244;6.774;2023-02-10T05:12:49;148858.44;;;5.54;100.00
12358;BME280;6243;51.244;6.774;2023-02-10T05:15:16;148924.22;;;5.80;100.00
12358;BME280;6243;51.244;6.774;2023-02-10T05:17:41;148860.94;;;5.55;100.00
12358;BME280;6243;51.244;6.774;2023-02-10T05:20:09;148901.44;;;5.71;100.00
12358;BME280;6243;51.244;6.774;2023-02-10T05:22:35;148907.75;;;5.73;100.00
12358;BME280;6243;51.244;6.774;2023-02-10T05:25:00;148912.81;;;5.75;100.00
12358;BME280;6243;51.244;6.774;2023-02-10T05:27:26;148942.00;;;5.87;100.00
12358;BME280;6243;51.244;6.774;2023-02-10T05:29:51;148980.00;;;6.02;100.00
12358;BME280;6243;51.244;6.774;2023-02-10T05:32:17;148988.84;;;6.06;100.00
12358;BME280;6243;51.244;6.774;2023-02-10T05:34:43;149043.31;;;6.27;100.00
12358;BME280;6243;51.244;6.774;2023-02-10T05:37:10;148997.69;;;6.09;100.00
12358;BME280;6243;51.244;6.774;2023-02-10T05:39:35;148943.25;;;5.88;100.00
12358;BME280;6243;51.244;6.774;2023-02-10T05:42:01;148943.25;;;5.88;100.00
12358;BME280;6243;51.244;6.774;2023-02-10T05:44:28;148888.78;;;5.66;100.00
12358;BME280;6243;51.244;6.774;2023-02-10T05:46:54;148939.47;;;5.86;100.00
12358;BME280;6243;51.244;6.774;2023-02-10T05:49:20;148897.66;;;5.69;100.00
12358;BME280;6243;51.244;6.774;2023-02-10T05:51:46;148988.84;;;6.06;100.00
12358;BME280;6243;51.244;6.774;2023-02-10T05:54:13;148987.56;;;6.05;100.00
12358;BME280;6243;51.244;6.774;2023-02-10T05:56:39;148987.56;;;6.05;100.00
12358;BME280;6243;51.244;6.774;2023-02-10T05:59:05;148955.94;;;5.93;100.00
12358;BME280;6243;51.244;6.774;2023-02-10T06:01:31;148919.16;;;5.78;100.00
12358;BME280;6243;51.244;6.774;2023-02-10T06:03:57;148939.47;;;5.86;100.00
12358;BME280;6243;51.244;6.774;2023-02-10T06:06:23;148958.44;;;5.94;100.00
12358;BME280;6243;51.244;6.774;2023-02-10T06:08:48;149040.75;;;6.26;100.00
12358;BME280;6243;51.244;6.774;2023-02-10T06:11:16;149059.75;;;6.34;100.00
12358;BME280;6243;51.244;6.774;2023-02-10T06:13:42;149047.09;;;6.29;100.00
12358;BME280;6243;51.244;6.774;2023-02-10T06:16:08;149038.19;;;6.25;100.00
12358;BME280;6243;51.244;6.774;2023-02-10T06:18:34;149023.03;;;6.19;100.00
12358;BME280;6243;51.244;6.774;2023-02-10T06:20:59;148900.16;;;5.70;100.00
12358;BME280;6243;51.244;6.774;2023-02-10T06:23:25;148862.22;;;5.55;100.00
12358;BME280;6243;51.244;6.774;2023-02-10T06:25:51;148887.53;;;5.65;100.00
12358;BME280;6243;51.244;6.774;2023-02-10T06:28:18;148939.47;;;5.86;100.00
12358;BME280;6243;51.244;6.774;2023-02-10T06:30:44;148838.16;;;5.46;100.00
12358;BME280;6243;51.244;6.774;2023-02-10T06:33:09;148796.44;;;5.29;100.00
12358;BME280;6243;51.244;6.774;2023-02-10T06:35:35;148767.34;;;5.18;100.00
12358;BME280;6243;51.244;6.774;2023-02-10T06:38:00;148786.28;;;5.25;100.00
12358;BME280;6243;51.244;6.774;2023-02-10T06:40:26;148795.16;;;5.29;100.00
12358;BME280;6243;51.244;6.774;2023-02-10T06:42:52;148804.00;;;5.32;100.00
12358;BME280;6243;51.244;6.774;2023-02-10T06:45:19;148785.06;;;5.25;100.00
12358;BME280;6243;51.244;6.774;2023-02-10T06:47:44;148821.72;;;5.39;100.00
12358;BME280;6243;51.244;6.774;2023-02-10T06:50:10;148903.97;;;5.72;100.00
12358;BME280;6243;51.244;6.774;2023-02-10T06:52:35;148821.72;;;5.39;100.00
12358;BME280;6243;51.244;6.774;2023-02-10T06:55:01;148806.53;;;5.33;100.00
12358;BME280;6243;51.244;6.774;2023-02-10T06:57:26;148812.88;;;5.36;100.00
12358;BME280;6243;51.244;6.774;2023-02-10T06:59:52;148829.31;;;5.42;100.00
12358;BME280;6243;51.244;6.774;2023-02-10T07:02:18;148838.16;;;5.46;100.00
12358;BME280;6243;51.244;6.774;2023-02-10T07:04:44;148819.22;;;5.38;100.00
12358;BME280;6243;51.244;6.774;2023-02-10T07:07:09;148840.72;;;5.47;100.00
12358;BME280;6243;51.244;6.774;2023-02-10T07:09:35;148811.59;;;5.35;100.00
12358;BME280;6243;51.244;6.774;2023-02-10T07:12:01;148835.66;;;5.45;100.00
12358;BME280;6243;51.244;6.774;2023-02-10T07:14:26;148873.59;;;5.60;100.00
12358;BME280;6243;51.244;6.774;2023-02-10T07:16:52;148816.66;;;5.37;100.00
12358;BME280;6243;51.244;6.774;2023-02-10T07:19:19;148771.09;;;5.19;100.00
12358;BME280;6243;51.244;6.774;2023-02-10T07:21:44;148740.75;;;5.07;100.00
12358;BME280;6243;51.244;6.774;2023-02-10T07:24:10;148877.38;;;5.61;100.00
12358;BME280;6243;51.244;6.774;2023-02-10T07:26:35;148869.81;;;5.58;100.00
12358;BME280;6243;51.244;6.774;2023-02-10T07:29:01;148865.97;;;5.57;100.00
12358;BME280;6243;51.244;6.774;2023-02-10T07:31:27;148945.78;;;5.89;100.00
12358;BME280;6243;51.244;6.774;2023-02-10T07:33:52;148917.88;;;5.78;100.00
12358;BME280;6243;51.244;6.774;2023-02-10T07:36:19;148868.53;;;5.58;100.00
12358;BME280;6243;51.244;6.774;2023-02-10T07:38:45;148833.09;;;5.44;100.00
12358;BME280;6243;51.244;6.774;2023-02-10T07:41:10;148807.81;;;5.34;100.00
12358;BME280;6243;51.244;6.774;2023-02-10T07:43:36;148887.53;;;5.65;100.00
12358;BME280;6243;51.244;6.774;2023-02-10T07:46:01;148764.78;;;5.17;100.00
12358;BME280;6243;51.244;6.774;2023-02-10T07:48:27;148812.88;;;5.36;100.00
12358;BME280;6243;51.244;6.774;2023-02-10T07:50:53;148814.09;;;5.36;100.00
12358;BME280;6243;51.244;6.774;2023-02-10T07:53:20;148773.66;;;5.20;100.00
12358;BME280;6243;51.244;6.774;2023-02-10T07:55:46;148896.38;;;5.69;100.00
12358;BME280;6243;51.244;6.774;2023-02-10T07:58:11;148804.00;;;5.32;100.00
12358;BME280;6243;51.244;6.774;2023-02-10T08:00:37;148817.94;;;5.38;100.00
12358;BME280;6243;51.244;6.774;2023-02-10T08:03:03;148792.59;;;5.28;100.00
12358;BME280;6243;51.244;6.774;2023-02-10T08:05:28;148807.81;;;5.34;100.00
12358;BME280;6243;51.244;6.774;2023-02-10T08:07:54;148859.69;;;5.54;100.00
12358;BME280;6243;51.244;6.774;2023-02-10T08:10:21;148841.97;;;5.47;100.00
12358;BME280;6243;51.244;6.774;2023-02-10T08:12:46;148947.03;;;5.89;100.00
12358;BME280;6243;51.244;6.774;2023-02-10T08:15:12;148883.72;;;5.64;100.00
12358;BME280;6243;51.244;6.774;2023-02-10T08:17:38;148944.53;;;5.88;100.00
12358;BME280;6243;51.244;6.774;2023-02-10T08:20:05;148877.38;;;5.61;100.00
12358;BME280;6243;51.244;6.774;2023-02-10T08:22:30;148841.97;;;5.47;100.00
12358;BME280;6243;51.244;6.774;2023-02-10T08:24:56;148809.06;;;5.34;100.00
12358;BME280;6243;51.244;6.774;2023-02-10T08:27:23;148841.97;;;5.47;100.00
12358;BME280;6243;51.244;6.774;2023-02-10T08:29:48;148825.50;;;5.41;100.00
12358;BME280;6243;51.244;6.774;2023-02-10T08:32:14;148881.19;;;5.63;100.00
12358;BME280;6243;51.244;6.774;2023-02-10T08:34:39;148930.53;;;5.83;100.00
12358;BME280;6243;51.244;6.774;2023-02-10T08:37:05;148888.78;;;5.66;100.00
12358;BME280;6243;51.244;6.774;2023-02-10T08:39:30;148905.25;;;5.72;100.00
12358;BME280;6243;51.244;6.774;2023-02-10T08:41:56;148995.16;;;6.08;100.00
12358;BME280;6243;51.244;6.774;2023-02-10T08:44:23;148954.66;;;5.92;100.00
12358;BME280;6243;51.244;6.774;2023-02-10T08:46:48;148987.56;;;6.05;100.00
12358;BME280;6243;51.244;6.774;2023-02-10T08:49:14;149033.13;;;6.23;100.00
12358;BME280;6243;51.244;6.774;2023-02-10T08:51:39;149045.81;;;6.28;100.00
12358;BME280;6243;51.244;6.774;2023-02-10T08:54:05;149012.91;;;6.15;100.00
12358;BME280;6243;51.244;6.774;2023-02-10T08:56:31;148990.13;;;6.06;100.00
12358;BME280;6243;51.244;6.774;2023-02-10T08:58:56;149058.47;;;6.33;100.00
12358;BME280;6243;51.244;6.774;2023-02-10T09:01:25;149102.78;;;6.51;100.00
12358;BME280;6243;51.244;6.774;2023-02-10T09:03:50;149177.53;;;6.81;100.00
12358;BME280;6243;51.244;6.774;2023-02-10T09:06:19;149175.03;;;6.80;100.00
12358;BME280;6243;51.244;6.774;2023-02-10T09:08:45;149086.34;;;6.44;100.00
12358;BME280;6243;51.244;6.774;2023-02-10T09:11:11;149190.22;;;6.86;100.00
12358;BME280;6243;51.244;6.774;2023-02-10T09:13:37;149210.47;;;6.94;100.00
12358;BME280;6243;51.244;6.774;2023-02-10T09:16:02;149311.88;;;7.34;100.00
12358;BME280;6243;51.244;6.774;2023-02-10T09:18:29;149240.88;;;7.06;100.00
12358;BME280;6243;51.244;6.774;2023-02-10T09:20:56;149399.31;;;7.69;100.00
12358;BME280;6243;51.244;6.774;2023-02-10T09:23:22;149425.97;;;7.79;100.00
12358;BME280;6243;51.244;6.774;2023-02-10T09:25:52;149413.28;;;7.74;100.00
12358;BME280;6243;51.244;6.774;2023-02-10T09:28:17;149556.63;;;8.31;100.00
12358;BME280;6243;51.244;6.774;2023-02-10T09:30:43;149650.53;;;8.69;100.00
12358;BME280;6243;51.244;6.774;2023-02-10T09:33:08;149684.78;;;8.82;100.00
12358;BME280;6243;51.244;6.774;2023-02-10T09:35:35;149731.75;;;9.01;100.00
12358;BME280;6243;51.244;6.774;2023-02-10T09:38:01;149815.53;;;9.34;100.00
12358;BME280;6243;51.244;6.774;2023-02-10T09:40:29;149830.75;;;9.40;100.00
12358;BME280;6243;51.244;6.774;2023-02-10T09:43:07;149871.38;;;9.56;100.00
12358;BME280;6243;51.244;6.774;2023-02-10T09:45:38;149926.00;;;9.78;100.00
12358;BME280;6243;51.244;6.774;2023-02-10T09:48:17;149986.97;;;10.02;100.00
12358;BME280;6243;51.244;6.774;2023-02-10T09:50:53;150012.44;;;10.12;100.00
12358;BME280;6243;51.244;6.774;2023-02-10T09:53:24;149811.72;;;9.33;100.00
12358;BME280;6243;51.244;6.774;2023-02-10T09:55:54;149928.53;;;9.79;100.00
12358;BME280;6243;51.244;6.774;2023-02-10T09:58:26;150025.16;;;10.17;100.00
12358;BME280;6243;51.244;6.774;2023-02-10T10:00:56;150069.63;;;10.35;100.00
12358;BME280;6243;51.244;6.774;2023-02-10T10:03:26;150049.25;;;10.27;100.00
12358;BME280;6243;51.244;6.774;2023-02-10T10:06:04;150083.63;;;10.40;100.00
12358;BME280;6243;51.244;6.774;2023-02-10T10:11:19;150091.19;;;10.43;100.00
12358;BME280;6243;51.244;6.774;2023-02-10T10:13:47;150190.34;;;10.83;100.00
12358;BME280;6243;51.244;6.774;2023-02-10T10:16:19;150256.50;;;11.09;100.00
12358;BME280;6243;51.244;6.774;2023-02-10T10:18:57;150325.16;;;11.36;98.35
12358;BME280;6243;51.244;6.774;2023-02-10T10:21:32;150217.03;;;10.93;99.11
12358;BME280;6243;51.244;6.774;2023-02-10T10:26:47;150292.06;;;11.23;98.40
12358;BME280;6243;51.244;6.774;2023-02-10T10:29:23;150365.84;;;11.52;96.18
12358;BME280;6243;51.244;6.774;2023-02-10T10:31:58;150465.09;;;11.91;93.36
12358;BME280;6243;51.244;6.774;2023-02-10T10:34:28;150332.75;;;11.39;92.74
12358;BME280;6243;51.244;6.774;2023-02-10T10:36:57;150482.91;;;11.98;93.00
12358;BME280;6243;51.244;6.774;2023-02-10T10:39:28;150606.38;;;12.47;89.59
12358;BME280;6243;51.244;6.774;2023-02-10T10:41:57;150428.22;;;11.77;86.60
12358;BME280;6243;51.244;6.774;2023-02-10T10:44:26;150444.75;;;11.83;89.65
12358;BME280;6243;51.244;6.774;2023-02-10T10:46:58;150411.69;;;11.70;91.59
12358;BME280;6243;51.244;6.774;2023-02-10T10:49:27;150626.72;;;12.55;87.72
12358;BME280;6243;51.244;6.774;2023-02-10T10:51:52;150700.56;;;12.84;85.06
12358;BME280;6243;51.244;6.774;2023-02-10T10:54:21;150714.59;;;12.90;82.79
12358;BME280;6243;51.244;6.774;2023-02-10T10:56:49;150729.88;;;12.96;80.98
12358;BME280;6243;51.244;6.774;2023-02-10T10:59:19;150868.75;;;13.51;80.59
12358;BME280;6243;51.244;6.774;2023-02-10T11:01:47;150929.94;;;13.75;79.07
12358;BME280;6243;51.244;6.774;2023-02-10T11:04:15;150945.22;;;13.81;76.37
12358;BME280;6243;51.244;6.774;2023-02-10T11:06:43;150986.00;;;13.97;76.20
12358;BME280;6243;51.244;6.774;2023-02-10T11:09:27;150968.16;;;13.90;75.00
12358;BME280;6243;51.244;6.774;2023-02-10T11:11:54;151076.53;;;14.33;74.13
12358;BME280;6243;51.244;6.774;2023-02-10T11:14:27;151125.00;;;14.52;72.41
12358;BME280;6243;51.244;6.774;2023-02-10T11:16:54;151109.72;;;14.46;72.20
12358;BME280;6243;51.244;6.774;2023-02-10T11:19:24;151214.31;;;14.87;71.56
12358;BME280;6243;51.244;6.774;2023-02-10T11:21:51;150914.63;;;13.69;72.22
12358;BME280;6243;51.244;6.774;2023-02-10T11:24:21;151086.78;;;14.37;69.05
12358;BME280;6243;51.244;6.774;2023-02-10T11:26:59;151238.50;;;14.97;69.23
12358;BME280;6243;51.244;6.774;2023-02-10T11:29:26;150816.53;;;13.30;70.30
12358;BME280;6243;51.244;6.774;2023-02-10T11:31:55;150988.56;;;13.98;71.26
12358;BME280;6243;51.244;6.774;2023-02-10T11:34:27;151285.72;;;15.16;68.12
12358;BME280;6243;51.244;6.774;2023-02-10T11:36:54;151447.81;;;15.80;65.25
12358;BME280;6243;51.244;6.774;2023-02-10T11:39:23;151366.13;;;15.47;63.90
12358;BME280;6243;51.244;6.774;2023-02-10T11:41:49;151609.94;;;16.44;61.91
12358;BME280;6243;51.244;6.774;2023-02-10T11:44:23;151211.72;;;14.86;64.01
12358;BME280;6243;51.244;6.774;2023-02-10T11:46:55;151694.31;;;16.77;61.15
12358;BME280;6243;51.244;6.774;2023-02-10T11:49:20;151533.31;;;16.13;59.97
12358;BME280;6243;51.244;6.774;2023-02-10T11:51:51;151896.25;;;17.56;55.72
12358;BME280;6243;51.244;6.774;2023-02-10T11:54:18;152052.22;;;18.18;52.63
12358;BME280;6243;51.244;6.774;2023-02-10T11:56:50;151685.34;;;16.73;51.79
12358;BME280;6243;51.244;6.774;2023-02-10T11:59:26;151438.91;;;15.76;55.12
12358;BME280;6243;51.244;6.774;2023-02-10T12:01:56;151107.16;;;14.45;59.21
12358;BME280;6243;51.244;6.774;2023-02-10T12:04:40;151077.81;;;14.34;59.66
12358;BME280;6243;51.244;6.774;2023-02-10T12:07:19;151043.34;;;14.20;60.42
12358;BME280;6243;51.244;6.774;2023-02-10T12:09:52;151028.09;;;14.14;61.08
12358;BME280;6243;51.244;6.774;2023-02-10T12:12:23;150961.78;;;13.88;61.86
12358;BME280;6243;51.244;6.774;2023-02-10T12:15:07;150913.38;;;13.69;62.66
12358;BME280;6243;51.244;6.774;2023-02-10T12:17:40;150895.53;;;13.62;62.70
12358;BME280;6243;51.244;6.774;2023-02-10T12:20:24;150857.28;;;13.46;62.43
12358;BME280;6243;51.244;6.774;2023-02-10T12:23:08;150826.75;;;13.34;62.92
12358;BME280;6243;51.244;6.774;2023-02-10T12:25:45;150824.19;;;13.33;63.67
12358;BME280;6243;51.244;6.774;2023-02-10T12:28:19;150735.00;;;12.98;64.91
12358;BME280;6243;51.244;6.774;2023-02-10T12:30:57;150786.00;;;13.18;64.22
12358;BME280;6243;51.244;6.774;2023-02-10T12:33:34;150803.81;;;13.25;63.61
12358;BME280;6243;51.244;6.774;2023-02-10T12:36:09;150794.88;;;13.22;63.86
12358;BME280;6243;51.244;6.774;2023-02-10T12:38:50;150728.63;;;12.96;65.36
12358;BME280;6243;51.244;6.774;2023-02-10T12:41:25;150778.34;;;13.15;63.80
12358;BME280;6243;51.244;6.774;2023-02-10T12:44:13;150783.41;;;13.17;64.36
12358;BME280;6243;51.244;6.774;2023-02-10T12:46:48;150787.22;;;13.19;65.06
12358;BME280;6243;51.244;6.774;2023-02-10T12:49:30;150777.03;;;13.15;65.92
12358;BME280;6243;51.244;6.774;2023-02-10T12:52:04;150564.38;;;12.31;65.83
12358;BME280;6243;51.244;6.774;2023-02-10T12:54:35;150678.94;;;12.76;66.63
12358;BME280;6243;51.244;6.774;2023-02-10T12:57:05;150594.94;;;12.43;66.44
12358;BME280;6243;51.244;6.774;2023-02-10T12:59:35;150694.25;;;12.82;66.25
12358;BME280;6243;51.244;6.774;2023-02-10T13:02:11;150731.16;;;12.97;66.57
12358;BME280;6243;51.244;6.774;2023-02-10T13:04:43;150626.72;;;12.55;65.14
12358;BME280;6243;51.244;6.774;2023-02-10T13:07:17;150729.88;;;12.96;65.45
12358;BME280;6243;51.244;6.774;2023-02-10T13:09:48;150712.09;;;12.89;65.04
12358;BME280;6243;51.244;6.774;2023-02-10T13:12:19;150631.81;;;12.57;65.98
12358;BME280;6243;51.244;6.774;2023-02-10T13:14:48;150650.94;;;12.65;66.16
12358;BME280;6243;51.244;6.774;2023-02-10T13:17:17;150685.31;;;12.78;66.04